メインページ
METAR-TAF:

METAR-TAF

空港 :

メルボルン空港

メルボルン, オーストラリア

緯度: 37-40-24S, 経度: 144-50-36E, 海抜: 132m

現時点の気象観測

当レポートは27分前の14:30(UTC)に作成
の風 9kt
気温 7°C
湿度 87%
気圧 1027 hPa
視程10km以上
1,500メートル以下は雲なし、積乱雲なし

METAR: YMML 251430Z 36009KT CAVOK 07/05 Q1027 NOSIG

時間: 00:57 (14:57 UTC)

予報

当レポートは3時間24分前の11:33(UTC)に作成
予報は25日の 12時(UTC)から 26日の 18時(UTC)まで有効
の風 8kt
視程10km以上
1,500メートル以下は雲なし、積乱雲なし
25日の 2200時(UTC)から
の風 15kt、最大25ktの突風を伴う
視程10km以上
1,500メートル以下は雲なし、積乱雲なし
26日の 0800時(UTC)から
の風 12kt
視程10km以上
1,500メートル以下は雲なし、積乱雲なし

TAF: YMML 251133Z 2512/2618 36008KT CAVOK FM252200 36015G25KT CAVOK FM260800 36012KT CAVOK

4,000以上の空港の気象観測と天気予報(METAR報とTAF報)

利用可能な観測所は地図上に黄色い丸と赤い丸で示す。

丸の上にカーソルを重ねると観測所名を参照できる。

次にクリックすると気象観測と天気予報を参照できる。

マップの切り替え:黒色「×」印の緑ボタンをクリックして拡大、「-」印の緑ボタンをクリックして縮小、緑色の三角印をクリックして隣りの地図に切り替え


METAR-TAF: